sensor_id;sensor_type;location;lat;lon;timestamp;pressure;altitude;pressure_sealevel;temperature;humidity
47054;BME280;32811;52.382;5.270;2023-03-23T00:01:15;100149.34;;;10.18;100.00
47054;BME280;32811;52.382;5.270;2023-03-23T00:03:53;100148.47;;;10.19;100.00
47054;BME280;32811;52.382;5.270;2023-03-23T00:06:23;100139.84;;;10.23;100.00
47054;BME280;32811;52.382;5.270;2023-03-23T00:08:51;100141.56;;;10.30;100.00
47054;BME280;32811;52.382;5.270;2023-03-23T00:11:23;100140.72;;;10.30;100.00
47054;BME280;32811;52.382;5.270;2023-03-23T00:13:52;100146.75;;;10.23;100.00
47054;BME280;32811;52.382;5.270;2023-03-23T00:16:22;100144.19;;;10.18;100.00
47054;BME280;32811;52.382;5.270;2023-03-23T00:18:54;100150.19;;;10.23;100.00
47054;BME280;32811;52.382;5.270;2023-03-23T00:21:21;100147.56;;;10.25;100.00
47054;BME280;32811;52.382;5.270;2023-03-23T00:23:53;100132.94;;;10.27;100.00
47054;BME280;32811;52.382;5.270;2023-03-23T00:26:19;100133.84;;;10.21;100.00
47054;BME280;32811;52.382;5.270;2023-03-23T00:28:44;100132.13;;;10.23;100.00
47054;BME280;32811;52.382;5.270;2023-03-23T00:31:12;100124.38;;;10.23;100.00
47054;BME280;32811;52.382;5.270;2023-03-23T00:33:38;100135.56;;;10.30;100.00
47054;BME280;32811;52.382;5.270;2023-03-23T00:36:10;100140.75;;;10.19;100.00
47054;BME280;32811;52.382;5.270;2023-03-23T00:38:37;100138.19;;;10.14;100.00
47054;BME280;32811;52.382;5.270;2023-03-23T00:41:04;100134.69;;;10.22;100.00
47054;BME280;32811;52.382;5.270;2023-03-23T00:43:31;100137.25;;;10.26;100.00
47054;BME280;32811;52.382;5.270;2023-03-23T00:45:57;100117.47;;;10.33;100.00
47054;BME280;32811;52.382;5.270;2023-03-23T00:48:27;100117.47;;;10.31;100.00
47054;BME280;32811;52.382;5.270;2023-03-23T00:50:53;100123.50;;;10.27;100.00
47054;BME280;32811;52.382;5.270;2023-03-23T00:53:19;100115.78;;;10.27;100.00
47054;BME280;32811;52.382;5.270;2023-03-23T00:55:46;100113.19;;;10.29;100.00
47054;BME280;32811;52.382;5.270;2023-03-23T00:58:13;100108.88;;;10.34;100.00
47054;BME280;32811;52.382;5.270;2023-03-23T01:00:39;100107.16;;;10.31;100.00
47054;BME280;32811;52.382;5.270;2023-03-23T01:03:06;100108.88;;;10.31;100.00
47054;BME280;32811;52.382;5.270;2023-03-23T01:05:36;100108.00;;;10.35;100.00
47054;BME280;32811;52.382;5.270;2023-03-23T01:08:03;100102.88;;;10.32;100.00
47054;BME280;32811;52.382;5.270;2023-03-23T01:10:29;100097.72;;;10.32;100.00
47054;BME280;32811;52.382;5.270;2023-03-23T01:12:59;100096.84;;;10.28;100.00
47054;BME280;32811;52.382;5.270;2023-03-23T01:15:27;100093.41;;;10.28;100.00
47054;BME280;32811;52.382;5.270;2023-03-23T01:17:52;100089.13;;;10.25;100.00
47054;BME280;32811;52.382;5.270;2023-03-23T01:20:18;100089.97;;;10.32;100.00
47054;BME280;32811;52.382;5.270;2023-03-23T01:22:44;100091.72;;;10.30;100.00
47054;BME280;32811;52.382;5.270;2023-03-23T01:25:11;100084.81;;;10.30;100.00
47054;BME280;32811;52.382;5.270;2023-03-23T01:27:37;100079.63;;;10.36;100.00
47054;BME280;32811;52.382;5.270;2023-03-23T01:30:06;100077.06;;;10.32;100.00
47054;BME280;32811;52.382;5.270;2023-03-23T01:32:31;100063.31;;;10.36;100.00
47054;BME280;32811;52.382;5.270;2023-03-23T01:34:57;100048.63;;;10.38;100.00
47054;BME280;32811;52.382;5.270;2023-03-23T01:37:23;100070.19;;;10.34;100.00
47054;BME280;32811;52.382;5.270;2023-03-23T01:39:56;100053.88;;;10.27;100.00
47054;BME280;32811;52.382;5.270;2023-03-23T01:42:30;100049.56;;;10.26;100.00
47054;BME280;32811;52.382;5.270;2023-03-23T01:45:32;100054.75;;;10.29;100.00
47054;BME280;32811;52.382;5.270;2023-03-23T01:48:17;100047.81;;;10.27;100.00
47054;BME280;32811;52.382;5.270;2023-03-23T01:50:56;100043.50;;;10.36;100.00
47054;BME280;32811;52.382;5.270;2023-03-23T01:53:26;100053.78;;;10.38;100.00
47054;BME280;32811;52.382;5.270;2023-03-23T01:55:54;100046.06;;;10.38;100.00
47054;BME280;32811;52.382;5.270;2023-03-23T01:58:25;100049.56;;;10.31;100.00
47054;BME280;32811;52.382;5.270;2023-03-23T02:00:54;100058.94;;;10.38;100.00
47054;BME280;32811;52.382;5.270;2023-03-23T02:03:21;100043.50;;;10.35;100.00
47054;BME280;32811;52.382;5.270;2023-03-23T02:05:49;100040.94;;;10.35;100.00
47054;BME280;32811;52.382;5.270;2023-03-23T02:08:16;100039.25;;;10.31;100.00
47054;BME280;32811;52.382;5.270;2023-03-23T02:10:43;100037.50;;;10.34;100.00
47054;BME280;32811;52.382;5.270;2023-03-23T02:13:11;100038.31;;;10.41;100.00
47054;BME280;32811;52.382;5.270;2023-03-23T02:27:22;100029.69;;;10.42;100.00
47054;BME280;32811;52.382;5.270;2023-03-23T02:35:21;100028.81;;;10.45;100.00
47054;BME280;32811;52.382;5.270;2023-03-23T02:38:01;100031.41;;;10.43;100.00
47054;BME280;32811;52.382;5.270;2023-03-23T02:40:35;100023.69;;;10.40;100.00
47054;BME280;32811;52.382;5.270;2023-03-23T02:43:07;100003.09;;;10.37;100.00
47054;BME280;32811;52.382;5.270;2023-03-23T02:45:36;100018.53;;;10.43;100.00
47054;BME280;32811;52.382;5.270;2023-03-23T02:48:04;100020.22;;;10.46;100.00
47054;BME280;32811;52.382;5.270;2023-03-23T02:50:33;100010.75;;;10.46;100.00
47054;BME280;32811;52.382;5.270;2023-03-23T02:52:59;100021.03;;;10.51;100.00
47054;BME280;32811;52.382;5.270;2023-03-23T02:55:27;100014.97;;;10.56;100.00
47054;BME280;32811;52.382;5.270;2023-03-23T02:57:55;99998.69;;;10.47;100.00
47054;BME280;32811;52.382;5.270;2023-03-23T03:00:22;100018.44;;;10.52;100.00
47054;BME280;32811;52.382;5.270;2023-03-23T03:02:53;100010.66;;;10.57;100.00
47054;BME280;32811;52.382;5.270;2023-03-23T03:08:22;100004.56;;;10.63;100.00
47054;BME280;32811;52.382;5.270;2023-03-23T03:11:05;100000.34;;;10.58;100.00
47054;BME280;32811;52.382;5.270;2023-03-23T03:13:58;100012.22;;;10.75;100.00
47054;BME280;32811;52.382;5.270;2023-03-23T03:19:02;99981.38;;;10.59;100.00
47054;BME280;32811;52.382;5.270;2023-03-23T03:21:32;99987.34;;;10.65;100.00
47054;BME280;32811;52.382;5.270;2023-03-23T03:24:01;99996.03;;;10.57;100.00
47054;BME280;32811;52.382;5.270;2023-03-23T03:26:30;99998.63;;;10.54;100.00
47054;BME280;32811;52.382;5.270;2023-03-23T03:28:57;100004.59;;;10.59;100.00
47054;BME280;32811;52.382;5.270;2023-03-23T03:31:27;100003.81;;;10.51;100.00
47054;BME280;32811;52.382;5.270;2023-03-23T03:33:54;99980.72;;;10.39;100.00
47054;BME280;32811;52.382;5.270;2023-03-23T03:36:24;99975.69;;;10.21;100.00
47054;BME280;32811;52.382;5.270;2023-03-23T03:38:51;99985.13;;;10.23;100.00
47054;BME280;32811;52.382;5.270;2023-03-23T03:41:18;99998.06;;;10.17;100.00
47054;BME280;32811;52.382;5.270;2023-03-23T03:43:44;99992.09;;;10.10;100.00
47054;BME280;32811;52.382;5.270;2023-03-23T03:46:10;99998.91;;;10.17;100.00
47054;BME280;32811;52.382;5.270;2023-03-23T03:48:35;99989.50;;;10.10;100.00
47054;BME280;32811;52.382;5.270;2023-03-23T03:51:01;100001.50;;;10.16;100.00
47054;BME280;32811;52.382;5.270;2023-03-23T03:53:28;100004.91;;;10.19;100.00
47054;BME280;32811;52.382;5.270;2023-03-23T03:55:53;99982.69;;;10.05;100.00
47054;BME280;32811;52.382;5.270;2023-03-23T03:58:25;100034.97;;;10.22;100.00
47054;BME280;32811;52.382;5.270;2023-03-23T04:01:00;100013.59;;;10.09;100.00
47054;BME280;32811;52.382;5.270;2023-03-23T04:03:26;100025.66;;;10.01;100.00
47054;BME280;32811;52.382;5.270;2023-03-23T04:05:55;99993.16;;;9.77;100.00
47054;BME280;32811;52.382;5.270;2023-03-23T04:08:24;100038.47;;;10.13;100.00
47054;BME280;32811;52.382;5.270;2023-03-23T04:10:52;100042.00;;;10.05;100.00
47054;BME280;32811;52.382;5.270;2023-03-23T04:13:19;100041.13;;;10.01;100.00
47054;BME280;32811;52.382;5.270;2023-03-23T04:15:45;100043.69;;;10.04;100.00
47054;BME280;32811;52.382;5.270;2023-03-23T04:18:11;100044.63;;;9.94;100.00
47054;BME280;32811;52.382;5.270;2023-03-23T04:20:37;100030.94;;;9.83;100.00
47054;BME280;32811;52.382;5.270;2023-03-23T04:23:03;100050.63;;;9.93;100.00
47054;BME280;32811;52.382;5.270;2023-03-23T04:25:28;100052.41;;;9.85;100.00
47054;BME280;32811;52.382;5.270;2023-03-23T04:27:58;100030.13;;;9.74;100.00
47054;BME280;32811;52.382;5.270;2023-03-23T04:30:26;100053.28;;;9.81;100.00
47054;BME280;32811;52.382;5.270;2023-03-23T04:32:53;100037.03;;;9.68;100.00
47054;BME280;32811;52.382;5.270;2023-03-23T04:35:22;100027.59;;;9.64;100.00
47054;BME280;32811;52.382;5.270;2023-03-23T04:37:48;100059.31;;;9.75;100.00
47054;BME280;32811;52.382;5.270;2023-03-23T04:40:14;100055.94;;;9.67;100.00
47054;BME280;32811;52.382;5.270;2023-03-23T04:42:42;100073.94;;;9.70;100.00
47054;BME280;32811;52.382;5.270;2023-03-23T04:45:13;100080.78;;;9.75;100.00
47054;BME280;32811;52.382;5.270;2023-03-23T04:54:05;100093.69;;;9.72;100.00
47054;BME280;32811;52.382;5.270;2023-03-23T04:56:30;100026.00;;;9.32;100.00
47054;BME280;32811;52.382;5.270;2023-03-23T05:18:19;100023.56;;;8.93;100.00
47054;BME280;32811;52.382;5.270;2023-03-23T05:20:45;100049.25;;;9.13;100.00
47054;BME280;32811;52.382;5.270;2023-03-23T05:23:12;100115.25;;;9.47;100.00
47054;BME280;32811;52.382;5.270;2023-03-23T05:25:38;100112.69;;;9.45;100.00
47054;BME280;32811;52.382;5.270;2023-03-23T05:28:08;100049.25;;;9.01;100.00
47054;BME280;32811;52.382;5.270;2023-03-23T05:33:54;100120.41;;;9.45;100.00
47054;BME280;32811;52.382;5.270;2023-03-23T05:36:19;100106.72;;;9.35;100.00
47054;BME280;32811;52.382;5.270;2023-03-23T05:41:28;100066.38;;;9.21;100.00
47054;BME280;32811;52.382;5.270;2023-03-23T05:43:53;100073.25;;;9.22;100.00
47054;BME280;32811;52.382;5.270;2023-03-23T05:46:19;100131.56;;;9.49;100.00
47054;BME280;32811;52.382;5.270;2023-03-23T05:48:44;100044.13;;;8.95;100.00
47054;BME280;32811;52.382;5.270;2023-03-23T05:54:18;100135.84;;;9.48;100.00
47054;BME280;32811;52.382;5.270;2023-03-23T05:56:44;100130.72;;;9.41;100.00
47054;BME280;32811;52.382;5.270;2023-03-23T05:59:09;100135.00;;;9.42;100.00
47054;BME280;32811;52.382;5.270;2023-03-23T06:01:38;100009.84;;;8.81;100.00
47054;BME280;32811;52.382;5.270;2023-03-23T06:04:04;100148.72;;;9.53;100.00
47054;BME280;32811;52.382;5.270;2023-03-23T06:06:30;100110.13;;;9.41;100.00
47054;BME280;32811;52.382;5.270;2023-03-23T06:08:57;100136.69;;;9.58;100.00
47054;BME280;32811;52.382;5.270;2023-03-23T06:11:23;100144.44;;;9.50;100.00
47054;BME280;32811;52.382;5.270;2023-03-23T06:13:49;100142.72;;;9.52;100.00
47054;BME280;32811;52.382;5.270;2023-03-23T06:16:15;100156.44;;;9.59;100.00
47054;BME280;32811;52.382;5.270;2023-03-23T06:18:41;100123.88;;;9.30;100.00
47054;BME280;32811;52.382;5.270;2023-03-23T06:21:08;100168.47;;;9.55;100.00
47054;BME280;32811;52.382;5.270;2023-03-23T06:23:34;100153.03;;;9.48;100.00
47054;BME280;32811;52.382;5.270;2023-03-23T06:26:04;100157.28;;;9.55;100.00
47054;BME280;32811;52.382;5.270;2023-03-23T06:28:31;100155.59;;;9.49;100.00
47054;BME280;32811;52.382;5.270;2023-03-23T06:31:04;100174.47;;;9.54;100.00
47054;BME280;32811;52.382;5.270;2023-03-23T06:33:36;100167.63;;;9.47;100.00
47054;BME280;32811;52.382;5.270;2023-03-23T06:36:02;100178.78;;;9.51;100.00
47054;BME280;32811;52.382;5.270;2023-03-23T06:38:27;100176.22;;;9.49;100.00
47054;BME280;32811;52.382;5.270;2023-03-23T06:40:54;100170.19;;;9.52;100.00
47054;BME280;32811;52.382;5.270;2023-03-23T06:43:21;100186.47;;;9.69;100.00
47054;BME280;32811;52.382;5.270;2023-03-23T06:45:47;100168.47;;;9.57;100.00
47054;BME280;32811;52.382;5.270;2023-03-23T06:48:12;100147.84;;;9.51;100.00
47054;BME280;32811;52.382;5.270;2023-03-23T06:53:45;100183.84;;;9.83;100.00
47054;BME280;32811;52.382;5.270;2023-03-23T06:56:10;100152.09;;;9.69;100.00
47054;BME280;32811;52.382;5.270;2023-03-23T06:58:39;100182.13;;;9.91;100.00
47054;BME280;32811;52.382;5.270;2023-03-23T07:01:05;100188.13;;;9.96;100.00
47054;BME280;32811;52.382;5.270;2023-03-23T07:03:31;100186.38;;;9.97;100.00
47054;BME280;32811;52.382;5.270;2023-03-23T07:05:57;100179.50;;;9.99;100.00
47054;BME280;32811;52.382;5.270;2023-03-23T07:08:22;100176.91;;;10.02;100.00
47054;BME280;32811;52.382;5.270;2023-03-23T07:10:51;100190.66;;;10.01;100.00
47054;BME280;32811;52.382;5.270;2023-03-23T07:13:18;100190.69;;;10.03;100.00
47054;BME280;32811;52.382;5.270;2023-03-23T07:15:43;100180.31;;;10.10;100.00
47054;BME280;32811;52.382;5.270;2023-03-23T07:18:09;100155.44;;;10.02;100.00
47054;BME280;32811;52.382;5.270;2023-03-23T07:20:35;100180.31;;;10.09;100.00
47054;BME280;32811;52.382;5.270;2023-03-23T07:23:01;100190.63;;;10.10;100.00
47054;BME280;32811;52.382;5.270;2023-03-23T07:25:27;100173.44;;;10.06;100.00
47054;BME280;32811;52.382;5.270;2023-03-23T07:27:53;100142.59;;;9.88;100.00
47054;BME280;32811;52.382;5.270;2023-03-23T07:30:18;100167.41;;;10.10;100.00
47054;BME280;32811;52.382;5.270;2023-03-23T07:32:44;100170.84;;;10.12;100.00
47054;BME280;32811;52.382;5.270;2023-03-23T07:35:10;100193.16;;;10.26;100.00
47054;BME280;32811;52.382;5.270;2023-03-23T07:37:36;100183.75;;;10.12;100.00
47054;BME280;32811;52.382;5.270;2023-03-23T07:40:03;100200.09;;;10.10;100.00
47054;BME280;32811;52.382;5.270;2023-03-23T07:42:46;100194.09;;;10.03;100.00
47054;BME280;32811;52.382;5.270;2023-03-23T07:45:17;100201.81;;;10.09;100.00
47054;BME280;32811;52.382;5.270;2023-03-23T07:48:04;100214.69;;;10.11;100.00
47054;BME280;32811;52.382;5.270;2023-03-23T07:50:30;100207.84;;;10.02;100.00
47054;BME280;32811;52.382;5.270;2023-03-23T07:52:57;100165.81;;;9.75;100.00
47054;BME280;32811;52.382;5.270;2023-03-23T07:55:24;100222.47;;;10.05;100.00
47054;BME280;32811;52.382;5.270;2023-03-23T07:57:50;100219.88;;;10.06;100.00
47054;BME280;32811;52.382;5.270;2023-03-23T08:00:17;100194.13;;;9.92;100.00
47054;BME280;32811;52.382;5.270;2023-03-23T08:02:53;100214.69;;;10.12;100.00
47054;BME280;32811;52.382;5.270;2023-03-23T08:05:21;100210.44;;;10.05;100.00
47054;BME280;32811;52.382;5.270;2023-03-23T08:07:47;100213.88;;;10.00;100.00
47054;BME280;32811;52.382;5.270;2023-03-23T08:10:14;100207.91;;;9.91;100.00
47054;BME280;32811;52.382;5.270;2023-03-23T08:12:41;100213.88;;;9.95;100.00
47054;BME280;32811;52.382;5.270;2023-03-23T08:15:09;100212.09;;;10.17;100.00
47054;BME280;32811;52.382;5.270;2023-03-23T08:17:39;100217.88;;;10.68;100.00
47054;BME280;32811;52.382;5.270;2023-03-23T08:20:06;100208.97;;;11.09;100.00
47054;BME280;32811;52.382;5.270;2023-03-23T08:22:37;100202.84;;;11.24;100.00
47054;BME280;32811;52.382;5.270;2023-03-23T08:25:04;100216.56;;;11.29;100.00
47054;BME280;32811;52.382;5.270;2023-03-23T08:27:32;100231.81;;;11.58;100.00
47054;BME280;32811;52.382;5.270;2023-03-23T08:29:57;100200.22;;;11.30;100.00
47054;BME280;32811;52.382;5.270;2023-03-23T08:32:23;100236.38;;;11.27;100.00
47054;BME280;32811;52.382;5.270;2023-03-23T08:34:49;100233.97;;;11.10;100.00
47054;BME280;32811;52.382;5.270;2023-03-23T08:37:15;100228.03;;;10.97;100.00
47054;BME280;32811;52.382;5.270;2023-03-23T08:39:40;100229.00;;;10.79;100.00
47054;BME280;32811;52.382;5.270;2023-03-23T08:42:08;100194.75;;;10.54;100.00
47054;BME280;32811;52.382;5.270;2023-03-23T08:44:42;100180.19;;;10.46;100.00
47054;BME280;32811;52.382;5.270;2023-03-23T08:47:20;100231.59;;;10.79;100.00
47054;BME280;32811;52.382;5.270;2023-03-23T08:49:50;100193.72;;;10.83;100.00
47054;BME280;32811;52.382;5.270;2023-03-23T08:52:23;100206.66;;;10.78;100.00
47054;BME280;32811;52.382;5.270;2023-03-23T08:54:52;100197.94;;;10.92;100.00
47054;BME280;32811;52.382;5.270;2023-03-23T08:57:18;100222.53;;;11.39;100.00
47054;BME280;32811;52.382;5.270;2023-03-23T08:59:48;100218.81;;;11.66;100.00
47054;BME280;32811;52.382;5.270;2023-03-23T09:02:14;100210.78;;;11.94;100.00
47054;BME280;32811;52.382;5.270;2023-03-23T09:04:40;100185.00;;;11.86;100.00
47054;BME280;32811;52.382;5.270;2023-03-23T09:07:10;100228.41;;;12.35;100.00
47054;BME280;32811;52.382;5.270;2023-03-23T09:09:37;100254.44;;;12.23;100.00
47054;BME280;32811;52.382;5.270;2023-03-23T09:12:06;100249.09;;;12.37;100.00
47054;BME280;32811;52.382;5.270;2023-03-23T09:14:32;100246.25;;;12.57;100.00
47054;BME280;32811;52.382;5.270;2023-03-23T09:16:57;100236.97;;;12.39;100.00
47054;BME280;32811;52.382;5.270;2023-03-23T09:19:23;100247.34;;;12.39;100.00
47054;BME280;32811;52.382;5.270;2023-03-23T09:21:48;100236.56;;;12.70;100.00
47054;BME280;32811;52.382;5.270;2023-03-23T09:24:15;100232.34;;;12.64;100.00
47054;BME280;32811;52.382;5.270;2023-03-23T09:26:40;100244.22;;;12.79;100.00
47054;BME280;32811;52.382;5.270;2023-03-23T09:29:06;100221.69;;;12.23;100.00
47054;BME280;32811;52.382;5.270;2023-03-23T09:31:31;100226.25;;;11.98;100.00
47054;BME280;32811;52.382;5.270;2023-03-23T09:33:58;100234.69;;;12.16;100.00
47054;BME280;32811;52.382;5.270;2023-03-23T09:36:25;100261.50;;;12.10;100.00
47054;BME280;32811;52.382;5.270;2023-03-23T09:38:57;100253.06;;;12.64;100.00
47054;BME280;32811;52.382;5.270;2023-03-23T09:44:19;100249.28;;;12.86;100.00
47054;BME280;32811;52.382;5.270;2023-03-23T09:46:59;100243.97;;;12.96;100.00
47054;BME280;32811;52.382;5.270;2023-03-23T09:49:32;100249.88;;;13.05;100.00
47054;BME280;32811;52.382;5.270;2023-03-23T09:52:09;100228.91;;;13.21;100.00
47054;BME280;32811;52.382;5.270;2023-03-23T09:54:41;100234.91;;;13.24;100.00
47054;BME280;32811;52.382;5.270;2023-03-23T09:57:37;100253.16;;;13.17;100.00
47054;BME280;32811;52.382;5.270;2023-03-23T10:00:18;100265.94;;;13.26;100.00
47054;BME280;32811;52.382;5.270;2023-03-23T10:05:40;100269.97;;;13.48;100.00
47054;BME280;32811;52.382;5.270;2023-03-23T10:08:16;100265.28;;;13.69;100.00
47054;BME280;32811;52.382;5.270;2023-03-23T10:16:38;100264.56;;;13.61;100.00
47054;BME280;32811;52.382;5.270;2023-03-23T10:21:35;100265.94;;;13.80;100.00
47054;BME280;32811;52.382;5.270;2023-03-23T10:24:05;100274.09;;;14.07;100.00
47054;BME280;32811;52.382;5.270;2023-03-23T10:29:34;100285.53;;;14.42;100.00
47054;BME280;32811;52.382;5.270;2023-03-23T10:32:10;100280.59;;;13.83;100.00
47054;BME280;32811;52.382;5.270;2023-03-23T10:37:13;100276.81;;;13.99;100.00
47054;BME280;32811;52.382;5.270;2023-03-23T10:39:52;100276.16;;;14.33;100.00
47054;BME280;32811;52.382;5.270;2023-03-23T10:42:28;100269.47;;;13.76;100.00
47054;BME280;32811;52.382;5.270;2023-03-23T10:44:55;100276.59;;;13.65;100.00
47054;BME280;32811;52.382;5.270;2023-03-23T10:47:22;100295.91;;;13.45;100.00
47054;BME280;32811;52.382;5.270;2023-03-23T10:49:56;100293.91;;;13.64;100.00
47054;BME280;32811;52.382;5.270;2023-03-23T10:52:36;100298.84;;;13.78;100.00
47054;BME280;32811;52.382;5.270;2023-03-23T10:57:36;100286.66;;;14.28;100.00
47054;BME280;32811;52.382;5.270;2023-03-23T11:02:45;100267.09;;;13.64;100.00
47054;BME280;32811;52.382;5.270;2023-03-23T11:05:19;100311.63;;;13.38;100.00
47054;BME280;32811;52.382;5.270;2023-03-23T11:07:53;100296.81;;;13.44;100.00
47054;BME280;32811;52.382;5.270;2023-03-23T11:10:53;100302.72;;;13.53;100.00
47054;BME280;32811;52.382;5.270;2023-03-23T11:13:21;100302.75;;;14.01;100.00
47054;BME280;32811;52.382;5.270;2023-03-23T11:15:48;100308.31;;;13.81;100.00
47054;BME280;32811;52.382;5.270;2023-03-23T11:20:52;100278.09;;;13.78;100.00
47054;BME280;32811;52.382;5.270;2023-03-23T11:25:59;100313.97;;;14.01;100.00
47054;BME280;32811;52.382;5.270;2023-03-23T11:28:29;100294.22;;;13.94;100.00
47054;BME280;32811;52.382;5.270;2023-03-23T11:30:58;100300.34;;;13.90;100.00
47054;BME280;32811;52.382;5.270;2023-03-23T11:33:25;100302.75;;;14.01;100.00
47054;BME280;32811;52.382;5.270;2023-03-23T11:35:54;100272.00;;;13.79;100.00
47054;BME280;32811;52.382;5.270;2023-03-23T11:38:21;100320.19;;;13.94;100.00
47054;BME280;32811;52.382;5.270;2023-03-23T11:40:51;100310.44;;;14.07;100.00
47054;BME280;32811;52.382;5.270;2023-03-23T11:43:25;100315.66;;;14.05;100.00
47054;BME280;32811;52.382;5.270;2023-03-23T11:46:05;100323.63;;;13.95;100.00
47054;BME280;32811;52.382;5.270;2023-03-23T11:48:57;100301.03;;;13.52;100.00
47054;BME280;32811;52.382;5.270;2023-03-23T11:55:19;100315.81;;;13.98;100.00
47054;BME280;32811;52.382;5.270;2023-03-23T11:57:46;100288.47;;;13.77;100.00
47054;BME280;32811;52.382;5.270;2023-03-23T12:00:22;100303.69;;;13.97;100.00
47054;BME280;32811;52.382;5.270;2023-03-23T12:02:57;100310.78;;;13.87;100.00
47054;BME280;32811;52.382;5.270;2023-03-23T12:27:11;100317.06;;;13.18;100.00
47054;BME280;32811;52.382;5.270;2023-03-23T12:30:35;100320.72;;;13.01;100.00
47054;BME280;32811;52.382;5.270;2023-03-23T12:44:22;100311.41;;;12.88;100.00
47054;BME280;32811;52.382;5.270;2023-03-23T12:49:40;100293.41;;;12.80;100.00
47054;BME280;32811;52.382;5.270;2023-03-23T12:52:15;100296.91;;;12.78;100.00
47054;BME280;32811;52.382;5.270;2023-03-23T13:00:22;100305.25;;;12.98;100.00
47054;BME280;32811;52.382;5.270;2023-03-23T13:03:01;100315.56;;;13.01;100.00
47054;BME280;32811;52.382;5.270;2023-03-23T13:08:15;100298.78;;;12.65;100.00
47054;BME280;32811;52.382;5.270;2023-03-23T13:10:45;100302.28;;;12.62;100.00
47054;BME280;32811;52.382;5.270;2023-03-23T13:13:25;100313.59;;;12.55;100.00
47054;BME280;32811;52.382;5.270;2023-03-23T13:16:10;100322.31;;;12.46;100.00
47054;BME280;32811;52.382;5.270;2023-03-23T13:21:29;100310.38;;;12.35;100.00
47054;BME280;32811;52.382;5.270;2023-03-23T13:24:06;100333.94;;;12.84;100.00
47054;BME280;32811;52.382;5.270;2023-03-23T13:26:40;100315.53;;;13.04;100.00
47054;BME280;32811;52.382;5.270;2023-03-23T13:29:21;100317.78;;;13.26;100.00
47054;BME280;32811;52.382;5.270;2023-03-23T13:31:50;100317.66;;;13.38;100.00
47054;BME280;32811;52.382;5.270;2023-03-23T13:34:22;100323.44;;;13.56;100.00
47054;BME280;32811;52.382;5.270;2023-03-23T13:37:02;100316.34;;;13.64;100.00
47054;BME280;32811;52.382;5.270;2023-03-23T13:39:33;100310.91;;;13.79;100.00
47054;BME280;32811;52.382;5.270;2023-03-23T13:53:11;100304.53;;;14.44;100.00
47054;BME280;32811;52.382;5.270;2023-03-23T13:55:49;100326.53;;;14.24;100.00
47054;BME280;32811;52.382;5.270;2023-03-23T13:58:25;100324.34;;;14.03;100.00
47054;BME280;32811;52.382;5.270;2023-03-23T14:01:13;100330.63;;;13.91;100.00
47054;BME280;32811;52.382;5.270;2023-03-23T14:03:46;100307.53;;;13.76;100.00
47054;BME280;32811;52.382;5.270;2023-03-23T14:06:18;100321.13;;;13.88;100.00
47054;BME280;32811;52.382;5.270;2023-03-23T14:08:48;100310.81;;;13.85;100.00
47054;BME280;32811;52.382;5.270;2023-03-23T14:11:24;100243.16;;;13.49;100.00
47054;BME280;32811;52.382;5.270;2023-03-23T14:16:21;100308.50;;;13.68;100.00
47054;BME280;32811;52.382;5.270;2023-03-23T14:18:56;100289.38;;;13.76;100.00
47054;BME280;32811;52.382;5.270;2023-03-23T14:24:03;100298.00;;;13.78;100.00
47054;BME280;32811;52.382;5.270;2023-03-23T14:26:33;100289.56;;;13.65;100.00
47054;BME280;32811;52.382;5.270;2023-03-23T14:28:59;100286.13;;;13.63;100.00
47054;BME280;32811;52.382;5.270;2023-03-23T14:31:26;100298.78;;;13.81;100.00
47054;BME280;32811;52.382;5.270;2023-03-23T14:33:54;100297.56;;;14.02;100.00
47054;BME280;32811;52.382;5.270;2023-03-23T14:36:27;100300.34;;;13.90;100.00
47054;BME280;32811;52.382;5.270;2023-03-23T14:39:04;100301.28;;;13.87;100.00
47054;BME280;32811;52.382;5.270;2023-03-23T14:41:32;100302.25;;;13.80;100.00
47054;BME280;32811;52.382;5.270;2023-03-23T14:44:02;100284.81;;;13.88;100.00
47054;BME280;32811;52.382;5.270;2023-03-23T14:46:30;100274.56;;;13.82;100.00
47054;BME280;32811;52.382;5.270;2023-03-23T14:49:00;100257.50;;;13.69;100.00
47054;BME280;32811;52.382;5.270;2023-03-23T14:51:26;100249.66;;;13.72;100.00
47054;BME280;32811;52.382;5.270;2023-03-23T14:53:53;100258.63;;;14.02;100.00
47054;BME280;32811;52.382;5.270;2023-03-23T14:56:22;100258.41;;;14.13;100.00
47054;BME280;32811;52.382;5.270;2023-03-23T14:58:51;100251.50;;;14.12;100.00
47054;BME280;32811;52.382;5.270;2023-03-23T15:01:27;100261.88;;;14.14;100.00
47054;BME280;32811;52.382;5.270;2023-03-23T15:03:55;100268.34;;;13.91;100.00
47054;BME280;32811;52.382;5.270;2023-03-23T15:06:26;100238.25;;;13.82;100.00
47054;BME280;32811;52.382;5.270;2023-03-23T15:08:55;100243.59;;;13.73;100.00
47054;BME280;32811;52.382;5.270;2023-03-23T15:11:30;100254.63;;;13.84;100.00
47054;BME280;32811;52.382;5.270;2023-03-23T15:14:00;100266.34;;;14.05;100.00
47054;BME280;32811;52.382;5.270;2023-03-23T15:16:33;100257.91;;;13.94;100.00
47054;BME280;32811;52.382;5.270;2023-03-23T15:19:05;100276.75;;;14.04;100.00
47054;BME280;32811;52.382;5.270;2023-03-23T15:21:55;100270.22;;;13.84;100.00
47054;BME280;32811;52.382;5.270;2023-03-23T15:26:52;100260.78;;;13.77;100.00
47054;BME280;32811;52.382;5.270;2023-03-23T15:29:20;100254.03;;;13.68;100.00
47054;BME280;32811;52.382;5.270;2023-03-23T15:31:58;100243.91;;;13.55;100.00
47054;BME280;32811;52.382;5.270;2023-03-23T15:34:36;100235.13;;;13.62;100.00
47054;BME280;32811;52.382;5.270;2023-03-23T15:37:19;100226.59;;;13.57;100.00